sensor_id;sensor_type;location;lat;lon;timestamp;P1;durP1;ratioP1;P2;durP2;ratioP2
25936;SDS011;13733;51.178;4.450;2023-05-07T00:00:37;15.00;;;10.10;;
25936;SDS011;13733;51.178;4.450;2023-05-07T00:03:03;14.82;;;9.32;;
25936;SDS011;13733;51.178;4.450;2023-05-07T00:05:29;14.52;;;10.02;;
25936;SDS011;13733;51.178;4.450;2023-05-07T00:07:55;12.35;;;9.82;;
25936;SDS011;13733;51.178;4.450;2023-05-07T00:10:21;13.20;;;9.77;;
25936;SDS011;13733;51.178;4.450;2023-05-07T00:12:46;11.57;;;9.25;;
25936;SDS011;13733;51.178;4.450;2023-05-07T00:15:12;15.93;;;10.50;;
25936;SDS011;13733;51.178;4.450;2023-05-07T00:17:38;15.07;;;10.48;;
25936;SDS011;13733;51.178;4.450;2023-05-07T00:20:06;15.45;;;10.25;;
25936;SDS011;13733;51.178;4.450;2023-05-07T00:22:32;13.55;;;10.02;;
25936;SDS011;13733;51.178;4.450;2023-05-07T00:24:58;14.75;;;10.43;;
25936;SDS011;13733;51.178;4.450;2023-05-07T00:27:25;13.15;;;9.82;;
25936;SDS011;13733;51.178;4.450;2023-05-07T00:29:51;15.57;;;10.43;;
25936;SDS011;13733;51.178;4.450;2023-05-07T00:32:17;15.68;;;9.77;;
25936;SDS011;13733;51.178;4.450;2023-05-07T00:34:43;14.77;;;10.45;;
25936;SDS011;13733;51.178;4.450;2023-05-07T00:37:09;13.57;;;10.18;;
25936;SDS011;13733;51.178;4.450;2023-05-07T00:39:35;12.88;;;9.95;;
25936;SDS011;13733;51.178;4.450;2023-05-07T00:42:01;15.93;;;10.82;;
25936;SDS011;13733;51.178;4.450;2023-05-07T00:44:28;16.75;;;10.82;;
25936;SDS011;13733;51.178;4.450;2023-05-07T00:46:55;13.85;;;10.95;;
25936;SDS011;13733;51.178;4.450;2023-05-07T00:49:28;16.77;;;11.10;;
25936;SDS011;13733;51.178;4.450;2023-05-07T00:52:05;12.48;;;10.50;;
25936;SDS011;13733;51.178;4.450;2023-05-07T00:54:33;14.00;;;10.85;;
25936;SDS011;13733;51.178;4.450;2023-05-07T00:57:00;14.68;;;10.50;;
25936;SDS011;13733;51.178;4.450;2023-05-07T00:59:30;11.43;;;9.80;;
25936;SDS011;13733;51.178;4.450;2023-05-07T01:01:56;12.30;;;10.40;;
25936;SDS011;13733;51.178;4.450;2023-05-07T01:04:22;16.27;;;11.90;;
25936;SDS011;13733;51.178;4.450;2023-05-07T01:06:49;13.98;;;11.02;;
25936;SDS011;13733;51.178;4.450;2023-05-07T01:09:16;16.70;;;11.07;;
25936;SDS011;13733;51.178;4.450;2023-05-07T01:11:44;15.13;;;10.80;;
25936;SDS011;13733;51.178;4.450;2023-05-07T01:14:10;13.88;;;10.73;;
25936;SDS011;13733;51.178;4.450;2023-05-07T01:16:36;16.92;;;11.32;;
25936;SDS011;13733;51.178;4.450;2023-05-07T01:19:03;16.02;;;11.48;;
25936;SDS011;13733;51.178;4.450;2023-05-07T01:21:29;14.15;;;10.98;;
25936;SDS011;13733;51.178;4.450;2023-05-07T01:23:58;16.25;;;10.80;;
25936;SDS011;13733;51.178;4.450;2023-05-07T01:26:24;14.95;;;11.48;;
25936;SDS011;13733;51.178;4.450;2023-05-07T01:28:51;14.65;;;10.80;;
25936;SDS011;13733;51.178;4.450;2023-05-07T01:31:16;14.75;;;11.43;;
25936;SDS011;13733;51.178;4.450;2023-05-07T01:33:43;16.10;;;10.80;;
25936;SDS011;13733;51.178;4.450;2023-05-07T01:36:11;13.70;;;11.40;;
25936;SDS011;13733;51.178;4.450;2023-05-07T01:38:38;13.27;;;10.40;;
25936;SDS011;13733;51.178;4.450;2023-05-07T01:41:05;14.32;;;10.38;;
25936;SDS011;13733;51.178;4.450;2023-05-07T01:43:33;12.68;;;10.55;;
25936;SDS011;13733;51.178;4.450;2023-05-07T01:45:59;15.98;;;11.07;;
25936;SDS011;13733;51.178;4.450;2023-05-07T01:48:26;17.40;;;11.43;;
25936;SDS011;13733;51.178;4.450;2023-05-07T01:50:53;12.45;;;10.50;;
25936;SDS011;13733;51.178;4.450;2023-05-07T01:53:20;14.65;;;11.07;;
25936;SDS011;13733;51.178;4.450;2023-05-07T01:55:46;14.38;;;10.57;;
25936;SDS011;13733;51.178;4.450;2023-05-07T01:58:11;14.93;;;11.20;;
25936;SDS011;13733;51.178;4.450;2023-05-07T02:00:37;14.65;;;11.35;;
25936;SDS011;13733;51.178;4.450;2023-05-07T02:03:04;14.80;;;11.43;;
25936;SDS011;13733;51.178;4.450;2023-05-07T02:05:40;14.20;;;11.30;;
25936;SDS011;13733;51.178;4.450;2023-05-07T02:08:24;14.40;;;11.88;;
25936;SDS011;13733;51.178;4.450;2023-05-07T02:10:50;14.13;;;11.18;;
25936;SDS011;13733;51.178;4.450;2023-05-07T02:13:16;14.32;;;11.27;;
25936;SDS011;13733;51.178;4.450;2023-05-07T02:15:42;14.77;;;11.15;;
25936;SDS011;13733;51.178;4.450;2023-05-07T02:18:11;15.55;;;11.32;;
25936;SDS011;13733;51.178;4.450;2023-05-07T02:20:37;15.73;;;11.30;;
25936;SDS011;13733;51.178;4.450;2023-05-07T02:23:03;14.90;;;11.23;;
25936;SDS011;13733;51.178;4.450;2023-05-07T02:25:30;14.98;;;12.10;;
25936;SDS011;13733;51.178;4.450;2023-05-07T02:27:56;14.43;;;11.38;;
25936;SDS011;13733;51.178;4.450;2023-05-07T02:30:32;16.67;;;11.60;;
25936;SDS011;13733;51.178;4.450;2023-05-07T02:32:59;12.68;;;10.55;;
25936;SDS011;13733;51.178;4.450;2023-05-07T02:35:25;11.82;;;10.35;;
25936;SDS011;13733;51.178;4.450;2023-05-07T02:37:51;13.32;;;10.95;;
25936;SDS011;13733;51.178;4.450;2023-05-07T02:40:17;14.30;;;11.05;;
25936;SDS011;13733;51.178;4.450;2023-05-07T02:42:43;13.60;;;10.88;;
25936;SDS011;13733;51.178;4.450;2023-05-07T02:45:09;13.77;;;10.57;;
25936;SDS011;13733;51.178;4.450;2023-05-07T02:47:37;14.68;;;11.43;;
25936;SDS011;13733;51.178;4.450;2023-05-07T02:50:03;13.85;;;10.82;;
25936;SDS011;13733;51.178;4.450;2023-05-07T02:52:30;14.85;;;11.20;;
25936;SDS011;13733;51.178;4.450;2023-05-07T02:54:56;12.18;;;10.30;;
25936;SDS011;13733;51.178;4.450;2023-05-07T02:57:22;15.52;;;10.52;;
25936;SDS011;13733;51.178;4.450;2023-05-07T02:59:48;12.45;;;11.15;;
25936;SDS011;13733;51.178;4.450;2023-05-07T03:02:15;12.52;;;11.18;;
25936;SDS011;13733;51.178;4.450;2023-05-07T03:04:41;14.23;;;11.02;;
25936;SDS011;13733;51.178;4.450;2023-05-07T03:07:07;12.73;;;11.07;;
25936;SDS011;13733;51.178;4.450;2023-05-07T03:09:33;12.30;;;10.52;;
25936;SDS011;13733;51.178;4.450;2023-05-07T03:11:59;12.80;;;11.57;;
25936;SDS011;13733;51.178;4.450;2023-05-07T03:14:26;14.23;;;11.13;;
25936;SDS011;13733;51.178;4.450;2023-05-07T03:16:52;12.35;;;10.52;;
25936;SDS011;13733;51.178;4.450;2023-05-07T03:19:18;14.82;;;11.80;;
25936;SDS011;13733;51.178;4.450;2023-05-07T03:21:44;13.00;;;10.68;;
25936;SDS011;13733;51.178;4.450;2023-05-07T03:24:10;16.67;;;10.55;;
25936;SDS011;13733;51.178;4.450;2023-05-07T03:26:36;14.25;;;11.50;;
25936;SDS011;13733;51.178;4.450;2023-05-07T03:29:02;15.13;;;11.48;;
25936;SDS011;13733;51.178;4.450;2023-05-07T03:31:28;12.95;;;11.60;;
25936;SDS011;13733;51.178;4.450;2023-05-07T03:33:54;12.85;;;10.30;;
25936;SDS011;13733;51.178;4.450;2023-05-07T03:36:22;11.55;;;10.35;;
25936;SDS011;13733;51.178;4.450;2023-05-07T03:38:49;12.27;;;11.00;;
25936;SDS011;13733;51.178;4.450;2023-05-07T03:41:19;13.45;;;12.05;;
25936;SDS011;13733;51.178;4.450;2023-05-07T03:43:45;15.05;;;12.00;;
25936;SDS011;13733;51.178;4.450;2023-05-07T03:46:12;14.40;;;11.25;;
25936;SDS011;13733;51.178;4.450;2023-05-07T03:48:38;13.27;;;10.88;;
25936;SDS011;13733;51.178;4.450;2023-05-07T03:51:05;14.98;;;11.40;;
25936;SDS011;13733;51.178;4.450;2023-05-07T03:53:32;13.10;;;10.68;;
25936;SDS011;13733;51.178;4.450;2023-05-07T03:55:58;15.45;;;11.30;;
25936;SDS011;13733;51.178;4.450;2023-05-07T03:58:24;15.07;;;11.80;;
25936;SDS011;13733;51.178;4.450;2023-05-07T04:00:52;12.50;;;11.10;;
25936;SDS011;13733;51.178;4.450;2023-05-07T04:03:23;16.25;;;11.70;;
25936;SDS011;13733;51.178;4.450;2023-05-07T04:05:49;12.60;;;11.13;;
25936;SDS011;13733;51.178;4.450;2023-05-07T04:08:15;13.20;;;11.80;;
25936;SDS011;13733;51.178;4.450;2023-05-07T04:10:45;13.80;;;11.98;;
25936;SDS011;13733;51.178;4.450;2023-05-07T04:13:12;13.50;;;11.65;;
25936;SDS011;13733;51.178;4.450;2023-05-07T04:15:38;15.25;;;11.93;;
25936;SDS011;13733;51.178;4.450;2023-05-07T04:18:08;14.13;;;10.63;;
25936;SDS011;13733;51.178;4.450;2023-05-07T04:20:34;13.05;;;11.57;;
25936;SDS011;13733;51.178;4.450;2023-05-07T04:23:07;15.23;;;12.27;;
25936;SDS011;13733;51.178;4.450;2023-05-07T04:25:33;13.07;;;11.77;;
25936;SDS011;13733;51.178;4.450;2023-05-07T04:28:06;13.15;;;11.75;;
25936;SDS011;13733;51.178;4.450;2023-05-07T04:30:33;13.52;;;11.38;;
25936;SDS011;13733;51.178;4.450;2023-05-07T04:32:58;17.25;;;12.20;;
25936;SDS011;13733;51.178;4.450;2023-05-07T04:35:28;15.30;;;11.43;;
25936;SDS011;13733;51.178;4.450;2023-05-07T04:37:55;16.80;;;12.15;;
25936;SDS011;13733;51.178;4.450;2023-05-07T04:40:21;13.40;;;10.45;;
25936;SDS011;13733;51.178;4.450;2023-05-07T04:42:47;12.00;;;10.73;;
25936;SDS011;13733;51.178;4.450;2023-05-07T04:45:13;13.93;;;11.05;;
25936;SDS011;13733;51.178;4.450;2023-05-07T04:47:42;12.88;;;10.82;;
25936;SDS011;13733;51.178;4.450;2023-05-07T04:50:07;13.90;;;10.88;;
25936;SDS011;13733;51.178;4.450;2023-05-07T04:52:35;12.25;;;10.77;;
25936;SDS011;13733;51.178;4.450;2023-05-07T04:55:00;12.20;;;10.90;;
25936;SDS011;13733;51.178;4.450;2023-05-07T04:57:31;16.23;;;11.35;;
25936;SDS011;13733;51.178;4.450;2023-05-07T04:59:57;13.15;;;10.48;;
25936;SDS011;13733;51.178;4.450;2023-05-07T05:02:23;12.50;;;10.90;;
25936;SDS011;13733;51.178;4.450;2023-05-07T05:04:49;14.85;;;11.27;;
25936;SDS011;13733;51.178;4.450;2023-05-07T05:07:16;12.93;;;10.45;;
25936;SDS011;13733;51.178;4.450;2023-05-07T05:09:42;13.32;;;10.90;;
25936;SDS011;13733;51.178;4.450;2023-05-07T05:12:08;13.38;;;11.68;;
25936;SDS011;13733;51.178;4.450;2023-05-07T05:14:36;11.15;;;10.00;;
25936;SDS011;13733;51.178;4.450;2023-05-07T05:17:03;12.45;;;10.40;;
25936;SDS011;13733;51.178;4.450;2023-05-07T05:19:29;16.25;;;10.77;;
25936;SDS011;13733;51.178;4.450;2023-05-07T05:21:55;12.38;;;10.88;;
25936;SDS011;13733;51.178;4.450;2023-05-07T05:24:21;14.10;;;11.85;;
25936;SDS011;13733;51.178;4.450;2023-05-07T05:26:47;15.73;;;10.90;;
25936;SDS011;13733;51.178;4.450;2023-05-07T05:29:13;12.05;;;10.50;;
25936;SDS011;13733;51.178;4.450;2023-05-07T05:31:41;11.35;;;10.23;;
25936;SDS011;13733;51.178;4.450;2023-05-07T05:34:07;11.05;;;9.85;;
25936;SDS011;13733;51.178;4.450;2023-05-07T05:36:33;12.10;;;9.98;;
25936;SDS011;13733;51.178;4.450;2023-05-07T05:39:00;14.13;;;10.93;;
25936;SDS011;13733;51.178;4.450;2023-05-07T05:41:26;12.05;;;10.43;;
25936;SDS011;13733;51.178;4.450;2023-05-07T05:43:53;14.00;;;10.43;;
25936;SDS011;13733;51.178;4.450;2023-05-07T05:46:19;12.77;;;10.73;;
25936;SDS011;13733;51.178;4.450;2023-05-07T05:48:46;12.07;;;10.75;;
25936;SDS011;13733;51.178;4.450;2023-05-07T05:51:12;13.15;;;10.35;;
25936;SDS011;13733;51.178;4.450;2023-05-07T05:53:37;12.73;;;9.95;;
25936;SDS011;13733;51.178;4.450;2023-05-07T05:56:05;13.82;;;11.32;;
25936;SDS011;13733;51.178;4.450;2023-05-07T05:58:33;14.88;;;11.55;;
25936;SDS011;13733;51.178;4.450;2023-05-07T06:01:01;13.00;;;11.70;;
25936;SDS011;13733;51.178;4.450;2023-05-07T06:03:29;12.57;;;10.65;;
25936;SDS011;13733;51.178;4.450;2023-05-07T06:05:57;15.02;;;10.60;;
25936;SDS011;13733;51.178;4.450;2023-05-07T06:08:23;11.88;;;10.63;;
25936;SDS011;13733;51.178;4.450;2023-05-07T06:10:49;12.52;;;10.07;;
25936;SDS011;13733;51.178;4.450;2023-05-07T06:13:15;13.55;;;10.98;;
25936;SDS011;13733;51.178;4.450;2023-05-07T06:15:41;11.82;;;10.73;;
25936;SDS011;13733;51.178;4.450;2023-05-07T06:18:10;12.57;;;10.48;;
25936;SDS011;13733;51.178;4.450;2023-05-07T06:20:36;11.68;;;10.48;;
25936;SDS011;13733;51.178;4.450;2023-05-07T06:23:04;12.73;;;10.50;;
25936;SDS011;13733;51.178;4.450;2023-05-07T06:25:32;11.05;;;9.70;;
25936;SDS011;13733;51.178;4.450;2023-05-07T06:27:58;10.93;;;9.60;;
25936;SDS011;13733;51.178;4.450;2023-05-07T06:30:24;10.13;;;9.07;;
25936;SDS011;13733;51.178;4.450;2023-05-07T06:32:53;11.95;;;9.55;;
25936;SDS011;13733;51.178;4.450;2023-05-07T06:35:19;10.73;;;9.63;;
25936;SDS011;13733;51.178;4.450;2023-05-07T06:37:45;11.65;;;10.45;;
25936;SDS011;13733;51.178;4.450;2023-05-07T06:40:19;13.98;;;10.30;;
25936;SDS011;13733;51.178;4.450;2023-05-07T06:42:45;13.07;;;9.07;;
25936;SDS011;13733;51.178;4.450;2023-05-07T06:47:54;11.73;;;9.48;;
25936;SDS011;13733;51.178;4.450;2023-05-07T06:50:21;14.25;;;10.05;;
25936;SDS011;13733;51.178;4.450;2023-05-07T06:52:48;15.63;;;11.52;;
25936;SDS011;13733;51.178;4.450;2023-05-07T06:55:14;13.90;;;10.43;;
25936;SDS011;13733;51.178;4.450;2023-05-07T06:57:39;14.18;;;10.88;;
25936;SDS011;13733;51.178;4.450;2023-05-07T07:00:07;14.82;;;10.75;;
25936;SDS011;13733;51.178;4.450;2023-05-07T07:02:42;10.13;;;9.07;;
25936;SDS011;13733;51.178;4.450;2023-05-07T07:05:09;11.57;;;10.38;;
25936;SDS011;13733;51.178;4.450;2023-05-07T07:07:36;12.18;;;9.68;;
25936;SDS011;13733;51.178;4.450;2023-05-07T07:10:02;13.82;;;11.05;;
25936;SDS011;13733;51.178;4.450;2023-05-07T07:12:30;14.00;;;11.20;;
25936;SDS011;13733;51.178;4.450;2023-05-07T07:14:55;13.10;;;10.45;;
25936;SDS011;13733;51.178;4.450;2023-05-07T07:17:22;12.73;;;11.30;;
25936;SDS011;13733;51.178;4.450;2023-05-07T07:19:48;15.30;;;10.57;;
25936;SDS011;13733;51.178;4.450;2023-05-07T07:22:14;11.63;;;9.85;;
25936;SDS011;13733;51.178;4.450;2023-05-07T07:24:40;13.13;;;10.05;;
25936;SDS011;13733;51.178;4.450;2023-05-07T07:27:09;12.77;;;11.43;;
25936;SDS011;13733;51.178;4.450;2023-05-07T07:29:34;14.38;;;10.63;;
25936;SDS011;13733;51.178;4.450;2023-05-07T07:32:01;13.57;;;11.23;;
25936;SDS011;13733;51.178;4.450;2023-05-07T07:34:27;15.43;;;11.38;;
25936;SDS011;13733;51.178;4.450;2023-05-07T07:36:53;14.40;;;11.23;;
25936;SDS011;13733;51.178;4.450;2023-05-07T07:39:19;12.48;;;10.07;;
25936;SDS011;13733;51.178;4.450;2023-05-07T07:41:48;11.55;;;10.30;;
25936;SDS011;13733;51.178;4.450;2023-05-07T07:44:15;18.65;;;11.30;;
25936;SDS011;13733;51.178;4.450;2023-05-07T07:46:41;15.63;;;10.68;;
25936;SDS011;13733;51.178;4.450;2023-05-07T07:49:07;14.18;;;9.77;;
25936;SDS011;13733;51.178;4.450;2023-05-07T07:51:34;13.25;;;10.15;;
25936;SDS011;13733;51.178;4.450;2023-05-07T07:54:00;15.98;;;8.73;;
25936;SDS011;13733;51.178;4.450;2023-05-07T07:56:28;10.05;;;8.18;;
25936;SDS011;13733;51.178;4.450;2023-05-07T07:58:54;12.55;;;8.80;;
25936;SDS011;13733;51.178;4.450;2023-05-07T08:01:20;11.93;;;8.82;;
25936;SDS011;13733;51.178;4.450;2023-05-07T08:03:46;13.45;;;8.20;;
25936;SDS011;13733;51.178;4.450;2023-05-07T08:06:30;10.27;;;7.82;;
25936;SDS011;13733;51.178;4.450;2023-05-07T08:08:58;12.80;;;8.90;;
25936;SDS011;13733;51.178;4.450;2023-05-07T08:11:24;10.68;;;8.07;;
25936;SDS011;13733;51.178;4.450;2023-05-07T08:13:54;9.68;;;7.70;;
25936;SDS011;13733;51.178;4.450;2023-05-07T08:16:21;11.63;;;7.13;;
25936;SDS011;13733;51.178;4.450;2023-05-07T08:18:47;11.23;;;6.53;;
25936;SDS011;13733;51.178;4.450;2023-05-07T08:21:13;11.50;;;7.55;;
25936;SDS011;13733;51.178;4.450;2023-05-07T08:23:40;14.00;;;7.30;;
25936;SDS011;13733;51.178;4.450;2023-05-07T08:26:08;13.20;;;6.75;;
25936;SDS011;13733;51.178;4.450;2023-05-07T08:28:35;14.23;;;7.30;;
25936;SDS011;13733;51.178;4.450;2023-05-07T08:31:01;10.40;;;6.85;;
25936;SDS011;13733;51.178;4.450;2023-05-07T08:33:30;9.95;;;6.70;;
25936;SDS011;13733;51.178;4.450;2023-05-07T08:35:56;12.70;;;7.55;;
25936;SDS011;13733;51.178;4.450;2023-05-07T08:38:22;16.45;;;8.52;;
25936;SDS011;13733;51.178;4.450;2023-05-07T08:40:50;13.05;;;7.47;;
25936;SDS011;13733;51.178;4.450;2023-05-07T08:43:20;17.63;;;8.45;;
25936;SDS011;13733;51.178;4.450;2023-05-07T08:45:51;13.20;;;8.07;;
25936;SDS011;13733;51.178;4.450;2023-05-07T08:48:26;14.45;;;7.90;;
25936;SDS011;13733;51.178;4.450;2023-05-07T08:51:04;11.65;;;7.80;;
25936;SDS011;13733;51.178;4.450;2023-05-07T08:53:31;12.77;;;8.73;;
25936;SDS011;13733;51.178;4.450;2023-05-07T08:55:58;19.83;;;8.57;;
25936;SDS011;13733;51.178;4.450;2023-05-07T08:58:26;14.45;;;7.90;;
25936;SDS011;13733;51.178;4.450;2023-05-07T09:00:52;11.75;;;7.25;;
25936;SDS011;13733;51.178;4.450;2023-05-07T09:03:23;14.82;;;7.38;;
25936;SDS011;13733;51.178;4.450;2023-05-07T09:05:53;13.35;;;6.63;;
25936;SDS011;13733;51.178;4.450;2023-05-07T09:08:26;12.88;;;6.93;;
25936;SDS011;13733;51.178;4.450;2023-05-07T09:10:57;15.52;;;7.60;;
25936;SDS011;13733;51.178;4.450;2023-05-07T09:13:23;17.80;;;8.18;;
25936;SDS011;13733;51.178;4.450;2023-05-07T09:15:55;11.10;;;6.75;;
25936;SDS011;13733;51.178;4.450;2023-05-07T09:18:24;10.45;;;6.72;;
25936;SDS011;13733;51.178;4.450;2023-05-07T09:20:51;10.95;;;6.30;;
25936;SDS011;13733;51.178;4.450;2023-05-07T09:23:19;12.55;;;7.10;;
25936;SDS011;13733;51.178;4.450;2023-05-07T09:25:47;13.77;;;6.68;;
25936;SDS011;13733;51.178;4.450;2023-05-07T09:28:20;11.10;;;6.10;;
25936;SDS011;13733;51.178;4.450;2023-05-07T09:30:45;11.70;;;6.57;;
25936;SDS011;13733;51.178;4.450;2023-05-07T09:33:13;12.50;;;6.63;;
25936;SDS011;13733;51.178;4.450;2023-05-07T09:35:43;13.07;;;6.57;;
25936;SDS011;13733;51.178;4.450;2023-05-07T09:38:16;13.10;;;6.53;;
25936;SDS011;13733;51.178;4.450;2023-05-07T09:40:47;11.98;;;6.70;;
25936;SDS011;13733;51.178;4.450;2023-05-07T09:43:34;13.43;;;6.82;;
25936;SDS011;13733;51.178;4.450;2023-05-07T09:46:04;13.55;;;6.10;;
25936;SDS011;13733;51.178;4.450;2023-05-07T09:48:41;13.18;;;6.15;;
25936;SDS011;13733;51.178;4.450;2023-05-07T09:51:15;13.20;;;6.30;;
25936;SDS011;13733;51.178;4.450;2023-05-07T09:53:47;12.77;;;6.75;;
25936;SDS011;13733;51.178;4.450;2023-05-07T09:56:16;11.23;;;6.47;;
25936;SDS011;13733;51.178;4.450;2023-05-07T09:58:44;10.45;;;5.70;;
25936;SDS011;13733;51.178;4.450;2023-05-07T10:01:12;13.90;;;6.22;;
25936;SDS011;13733;51.178;4.450;2023-05-07T10:03:40;12.93;;;5.93;;
25936;SDS011;13733;51.178;4.450;2023-05-07T10:06:09;11.93;;;6.13;;
25936;SDS011;13733;51.178;4.450;2023-05-07T10:08:37;12.10;;;6.00;;
25936;SDS011;13733;51.178;4.450;2023-05-07T10:11:05;11.20;;;5.72;;
25936;SDS011;13733;51.178;4.450;2023-05-07T10:13:34;10.27;;;5.38;;
25936;SDS011;13733;51.178;4.450;2023-05-07T10:16:05;9.73;;;5.95;;
25936;SDS011;13733;51.178;4.450;2023-05-07T10:18:37;11.35;;;5.20;;
25936;SDS011;13733;51.178;4.450;2023-05-07T10:21:11;10.38;;;4.68;;
25936;SDS011;13733;51.178;4.450;2023-05-07T10:23:50;12.85;;;5.95;;
25936;SDS011;13733;51.178;4.450;2023-05-07T10:26:20;10.52;;;5.45;;
25936;SDS011;13733;51.178;4.450;2023-05-07T10:28:49;13.90;;;5.95;;
25936;SDS011;13733;51.178;4.450;2023-05-07T10:34:18;9.75;;;5.03;;
25936;SDS011;13733;51.178;4.450;2023-05-07T10:36:49;10.38;;;5.22;;
25936;SDS011;13733;51.178;4.450;2023-05-07T10:39:17;10.90;;;5.20;;
25936;SDS011;13733;51.178;4.450;2023-05-07T10:41:45;9.10;;;4.60;;
25936;SDS011;13733;51.178;4.450;2023-05-07T10:44:24;8.57;;;4.55;;
25936;SDS011;13733;51.178;4.450;2023-05-07T10:47:14;10.63;;;3.90;;
25936;SDS011;13733;51.178;4.450;2023-05-07T10:52:24;8.90;;;4.20;;
25936;SDS011;13733;51.178;4.450;2023-05-07T10:57:50;12.35;;;5.15;;
25936;SDS011;13733;51.178;4.450;2023-05-07T11:11:33;10.38;;;4.28;;
25936;SDS011;13733;51.178;4.450;2023-05-07T11:17:11;5.83;;;3.03;;
25936;SDS011;13733;51.178;4.450;2023-05-07T11:19:54;6.93;;;3.30;;
25936;SDS011;13733;51.178;4.450;2023-05-07T11:25:29;11.13;;;3.53;;
25936;SDS011;13733;51.178;4.450;2023-05-07T11:28:05;5.88;;;3.22;;
25936;SDS011;13733;51.178;4.450;2023-05-07T11:30:46;8.57;;;3.60;;
25936;SDS011;13733;51.178;4.450;2023-05-07T11:33:16;7.40;;;3.50;;
25936;SDS011;13733;51.178;4.450;2023-05-07T11:35:44;7.35;;;3.55;;
25936;SDS011;13733;51.178;4.450;2023-05-07T11:38:12;7.50;;;3.33;;
25936;SDS011;13733;51.178;4.450;2023-05-07T11:40:49;7.00;;;3.47;;
25936;SDS011;13733;51.178;4.450;2023-05-07T11:43:21;6.50;;;3.60;;
25936;SDS011;13733;51.178;4.450;2023-05-07T11:45:48;8.98;;;3.20;;
25936;SDS011;13733;51.178;4.450;2023-05-07T11:48:14;5.82;;;2.90;;
25936;SDS011;13733;51.178;4.450;2023-05-07T11:50:53;7.57;;;3.13;;
25936;SDS011;13733;51.178;4.450;2023-05-07T11:53:26;6.35;;;2.85;;
25936;SDS011;13733;51.178;4.450;2023-05-07T11:55:53;5.88;;;2.50;;
25936;SDS011;13733;51.178;4.450;2023-05-07T11:58:22;6.67;;;2.67;;
25936;SDS011;13733;51.178;4.450;2023-05-07T12:00:53;6.68;;;3.17;;
25936;SDS011;13733;51.178;4.450;2023-05-07T12:03:22;7.45;;;2.85;;
25936;SDS011;13733;51.178;4.450;2023-05-07T12:05:48;6.03;;;2.70;;
25936;SDS011;13733;51.178;4.450;2023-05-07T12:08:14;9.52;;;3.00;;
25936;SDS011;13733;51.178;4.450;2023-05-07T12:10:42;8.63;;;3.00;;
25936;SDS011;13733;51.178;4.450;2023-05-07T12:13:20;9.23;;;3.45;;
25936;SDS011;13733;51.178;4.450;2023-05-07T12:15:50;7.80;;;3.60;;
25936;SDS011;13733;51.178;4.450;2023-05-07T12:18:16;7.68;;;3.55;;
25936;SDS011;13733;51.178;4.450;2023-05-07T12:20:42;9.07;;;3.50;;
25936;SDS011;13733;51.178;4.450;2023-05-07T12:23:10;8.88;;;3.75;;
25936;SDS011;13733;51.178;4.450;2023-05-07T12:25:36;8.75;;;2.97;;
25936;SDS011;13733;51.178;4.450;2023-05-07T12:28:03;7.57;;;3.35;;
25936;SDS011;13733;51.178;4.450;2023-05-07T12:30:40;8.60;;;3.30;;
25936;SDS011;13733;51.178;4.450;2023-05-07T12:33:07;7.57;;;3.70;;
25936;SDS011;13733;51.178;4.450;2023-05-07T12:35:38;6.13;;;3.30;;
25936;SDS011;13733;51.178;4.450;2023-05-07T12:38:09;8.20;;;3.20;;
25936;SDS011;13733;51.178;4.450;2023-05-07T12:40:38;8.30;;;3.45;;
25936;SDS011;13733;51.178;4.450;2023-05-07T12:43:05;8.25;;;3.78;;
25936;SDS011;13733;51.178;4.450;2023-05-07T12:45:31;7.22;;;3.40;;
25936;SDS011;13733;51.178;4.450;2023-05-07T12:48:02;6.95;;;2.95;;
25936;SDS011;13733;51.178;4.450;2023-05-07T12:50:30;7.10;;;3.00;;
25936;SDS011;13733;51.178;4.450;2023-05-07T12:52:58;8.57;;;3.10;;
25936;SDS011;13733;51.178;4.450;2023-05-07T12:55:24;6.40;;;2.90;;
25936;SDS011;13733;51.178;4.450;2023-05-07T12:57:50;7.30;;;3.50;;
25936;SDS011;13733;51.178;4.450;2023-05-07T13:00:39;6.28;;;2.88;;
25936;SDS011;13733;51.178;4.450;2023-05-07T13:03:05;11.00;;;3.35;;
25936;SDS011;13733;51.178;4.450;2023-05-07T13:05:31;8.30;;;3.13;;
25936;SDS011;13733;51.178;4.450;2023-05-07T13:07:57;5.65;;;2.78;;
25936;SDS011;13733;51.178;4.450;2023-05-07T13:10:25;4.93;;;2.35;;
25936;SDS011;13733;51.178;4.450;2023-05-07T13:12:52;6.20;;;3.17;;
25936;SDS011;13733;51.178;4.450;2023-05-07T13:15:19;7.50;;;3.22;;
25936;SDS011;13733;51.178;4.450;2023-05-07T13:17:45;5.13;;;2.70;;
25936;SDS011;13733;51.178;4.450;2023-05-07T13:20:10;7.68;;;3.10;;
25936;SDS011;13733;51.178;4.450;2023-05-07T13:22:39;5.25;;;2.47;;
25936;SDS011;13733;51.178;4.450;2023-05-07T13:25:05;5.28;;;2.75;;
25936;SDS011;13733;51.178;4.450;2023-05-07T13:27:32;5.07;;;2.50;;
25936;SDS011;13733;51.178;4.450;2023-05-07T13:30:00;5.53;;;2.60;;
25936;SDS011;13733;51.178;4.450;2023-05-07T13:32:26;6.80;;;2.65;;
25936;SDS011;13733;51.178;4.450;2023-05-07T13:34:52;4.78;;;2.40;;
25936;SDS011;13733;51.178;4.450;2023-05-07T13:37:17;5.68;;;2.38;;
25936;SDS011;13733;51.178;4.450;2023-05-07T13:39:43;6.70;;;2.70;;
25936;SDS011;13733;51.178;4.450;2023-05-07T13:42:09;6.82;;;2.75;;
25936;SDS011;13733;51.178;4.450;2023-05-07T13:44:35;6.82;;;2.65;;
25936;SDS011;13733;51.178;4.450;2023-05-07T13:47:01;5.30;;;2.35;;
25936;SDS011;13733;51.178;4.450;2023-05-07T13:49:27;5.32;;;2.35;;
25936;SDS011;13733;51.178;4.450;2023-05-07T13:51:53;7.03;;;2.60;;
25936;SDS011;13733;51.178;4.450;2023-05-07T13:54:19;6.63;;;2.50;;
25936;SDS011;13733;51.178;4.450;2023-05-07T13:56:45;6.57;;;2.45;;
25936;SDS011;13733;51.178;4.450;2023-05-07T13:59:10;8.93;;;2.45;;
25936;SDS011;13733;51.178;4.450;2023-05-07T14:01:39;4.47;;;2.05;;
25936;SDS011;13733;51.178;4.450;2023-05-07T14:04:08;3.70;;;1.92;;
25936;SDS011;13733;51.178;4.450;2023-05-07T14:06:34;4.20;;;2.13;;
25936;SDS011;13733;51.178;4.450;2023-05-07T14:09:00;4.45;;;2.15;;
25936;SDS011;13733;51.178;4.450;2023-05-07T14:11:26;5.32;;;2.33;;
25936;SDS011;13733;51.178;4.450;2023-05-07T14:13:51;3.97;;;2.38;;
25936;SDS011;13733;51.178;4.450;2023-05-07T14:16:17;6.82;;;2.20;;
25936;SDS011;13733;51.178;4.450;2023-05-07T14:18:43;5.30;;;2.30;;
25936;SDS011;13733;51.178;4.450;2023-05-07T14:21:09;5.70;;;2.70;;
25936;SDS011;13733;51.178;4.450;2023-05-07T14:23:35;5.63;;;2.10;;
25936;SDS011;13733;51.178;4.450;2023-05-07T14:26:01;6.38;;;2.30;;
25936;SDS011;13733;51.178;4.450;2023-05-07T14:28:27;5.10;;;2.20;;
25936;SDS011;13733;51.178;4.450;2023-05-07T14:30:53;6.53;;;2.35;;
25936;SDS011;13733;51.178;4.450;2023-05-07T14:33:32;4.45;;;2.40;;
25936;SDS011;13733;51.178;4.450;2023-05-07T14:35:57;4.47;;;2.05;;
25936;SDS011;13733;51.178;4.450;2023-05-07T14:38:23;6.55;;;2.47;;
25936;SDS011;13733;51.178;4.450;2023-05-07T14:40:49;3.50;;;1.88;;
25936;SDS011;13733;51.178;4.450;2023-05-07T14:43:15;4.40;;;1.90;;
25936;SDS011;13733;51.178;4.450;2023-05-07T14:45:41;4.97;;;2.05;;
25936;SDS011;13733;51.178;4.450;2023-05-07T14:48:07;3.22;;;1.85;;
25936;SDS011;13733;51.178;4.450;2023-05-07T14:50:34;5.93;;;2.17;;
25936;SDS011;13733;51.178;4.450;2023-05-07T14:53:00;3.63;;;1.98;;
25936;SDS011;13733;51.178;4.450;2023-05-07T14:55:26;5.25;;;2.08;;
25936;SDS011;13733;51.178;4.450;2023-05-07T14:57:52;4.88;;;2.10;;
25936;SDS011;13733;51.178;4.450;2023-05-07T15:00:18;5.13;;;2.38;;
25936;SDS011;13733;51.178;4.450;2023-05-07T15:02:44;5.68;;;2.33;;